sensor_id;sensor_type;location;lat;lon;timestamp;P1;durP1;ratioP1;P2;durP2;ratioP2
48853;SDS011;34673;52.808;17.856;2022-12-07T00:01:29;23.65;;;9.80;;
48853;SDS011;34673;52.808;17.856;2022-12-07T00:03:59;20.92;;;9.57;;
48853;SDS011;34673;52.808;17.856;2022-12-07T00:06:35;20.25;;;10.00;;
48853;SDS011;34673;52.808;17.856;2022-12-07T00:09:04;18.83;;;9.30;;
48853;SDS011;34673;52.808;17.856;2022-12-07T00:11:32;20.63;;;9.27;;
48853;SDS011;34673;52.808;17.856;2022-12-07T00:14:01;17.10;;;8.48;;
48853;SDS011;34673;52.808;17.856;2022-12-07T00:16:30;21.48;;;8.73;;
48853;SDS011;34673;52.808;17.856;2022-12-07T00:18:59;16.13;;;8.20;;
48853;SDS011;34673;52.808;17.856;2022-12-07T00:21:28;23.90;;;9.30;;
48853;SDS011;34673;52.808;17.856;2022-12-07T00:23:56;17.15;;;9.15;;
48853;SDS011;34673;52.808;17.856;2022-12-07T00:26:25;21.52;;;9.68;;
48853;SDS011;34673;52.808;17.856;2022-12-07T00:28:56;18.65;;;9.40;;
48853;SDS011;34673;52.808;17.856;2022-12-07T00:31:28;25.95;;;11.27;;
48853;SDS011;34673;52.808;17.856;2022-12-07T00:34:00;28.52;;;9.85;;
48853;SDS011;34673;52.808;17.856;2022-12-07T00:36:27;23.55;;;9.55;;
48853;SDS011;34673;52.808;17.856;2022-12-07T00:38:54;16.08;;;8.38;;
48853;SDS011;34673;52.808;17.856;2022-12-07T00:41:24;18.08;;;8.85;;
48853;SDS011;34673;52.808;17.856;2022-12-07T00:43:52;16.15;;;8.20;;
48853;SDS011;34673;52.808;17.856;2022-12-07T00:46:20;25.77;;;9.70;;
48853;SDS011;34673;52.808;17.856;2022-12-07T00:48:48;16.95;;;7.28;;
48853;SDS011;34673;52.808;17.856;2022-12-07T00:51:17;20.60;;;8.55;;
48853;SDS011;34673;52.808;17.856;2022-12-07T00:53:45;19.33;;;9.17;;
48853;SDS011;34673;52.808;17.856;2022-12-07T00:56:14;21.73;;;9.30;;
48853;SDS011;34673;52.808;17.856;2022-12-07T01:01:10;15.95;;;7.95;;
48853;SDS011;34673;52.808;17.856;2022-12-07T01:03:38;13.18;;;7.03;;
48853;SDS011;34673;52.808;17.856;2022-12-07T01:06:05;15.32;;;7.53;;
48853;SDS011;34673;52.808;17.856;2022-12-07T01:08:32;13.10;;;6.57;;
48853;SDS011;34673;52.808;17.856;2022-12-07T01:11:04;20.17;;;8.27;;
48853;SDS011;34673;52.808;17.856;2022-12-07T01:13:34;13.63;;;6.43;;
48853;SDS011;34673;52.808;17.856;2022-12-07T01:16:03;14.63;;;7.28;;
48853;SDS011;34673;52.808;17.856;2022-12-07T01:18:32;12.15;;;6.40;;
48853;SDS011;34673;52.808;17.856;2022-12-07T01:21:03;11.45;;;5.78;;
48853;SDS011;34673;52.808;17.856;2022-12-07T01:23:31;11.63;;;6.22;;
48853;SDS011;34673;52.808;17.856;2022-12-07T01:26:00;10.05;;;5.65;;
48853;SDS011;34673;52.808;17.856;2022-12-07T01:28:29;20.63;;;8.02;;
48853;SDS011;34673;52.808;17.856;2022-12-07T01:30:57;11.82;;;6.35;;
48853;SDS011;34673;52.808;17.856;2022-12-07T01:33:24;14.88;;;6.70;;
48853;SDS011;34673;52.808;17.856;2022-12-07T01:35:54;17.10;;;7.45;;
48853;SDS011;34673;52.808;17.856;2022-12-07T01:38:21;18.45;;;8.32;;
48853;SDS011;34673;52.808;17.856;2022-12-07T01:40:53;15.15;;;6.82;;
48853;SDS011;34673;52.808;17.856;2022-12-07T01:43:21;17.17;;;8.50;;
48853;SDS011;34673;52.808;17.856;2022-12-07T01:45:50;19.38;;;8.65;;
48853;SDS011;34673;52.808;17.856;2022-12-07T01:48:19;17.65;;;9.57;;
48853;SDS011;34673;52.808;17.856;2022-12-07T01:51:10;20.23;;;9.63;;
48853;SDS011;34673;52.808;17.856;2022-12-07T01:53:42;18.02;;;9.52;;
48853;SDS011;34673;52.808;17.856;2022-12-07T01:56:13;35.90;;;12.63;;
48853;SDS011;34673;52.808;17.856;2022-12-07T01:58:45;22.45;;;10.70;;
48853;SDS011;34673;52.808;17.856;2022-12-07T02:01:12;40.78;;;14.23;;
48853;SDS011;34673;52.808;17.856;2022-12-07T02:03:41;39.50;;;14.95;;
48853;SDS011;34673;52.808;17.856;2022-12-07T02:06:12;36.25;;;15.50;;
48853;SDS011;34673;52.808;17.856;2022-12-07T02:08:44;44.75;;;16.08;;
48853;SDS011;34673;52.808;17.856;2022-12-07T02:11:12;53.65;;;17.13;;
48853;SDS011;34673;52.808;17.856;2022-12-07T02:13:40;68.72;;;19.73;;
48853;SDS011;34673;52.808;17.856;2022-12-07T02:35:34;39.97;;;16.52;;
48853;SDS011;34673;52.808;17.856;2022-12-07T02:40:54;36.90;;;15.27;;
48853;SDS011;34673;52.808;17.856;2022-12-07T02:43:28;45.67;;;16.70;;
48853;SDS011;34673;52.808;17.856;2022-12-07T02:45:59;30.13;;;13.35;;
48853;SDS011;34673;52.808;17.856;2022-12-07T02:48:31;33.08;;;14.27;;
48853;SDS011;34673;52.808;17.856;2022-12-07T02:51:00;31.67;;;13.25;;
48853;SDS011;34673;52.808;17.856;2022-12-07T02:53:31;34.25;;;13.98;;
48853;SDS011;34673;52.808;17.856;2022-12-07T02:59:02;33.42;;;13.30;;
48853;SDS011;34673;52.808;17.856;2022-12-07T03:07:07;34.75;;;14.25;;
48853;SDS011;34673;52.808;17.856;2022-12-07T03:12:27;34.05;;;13.82;;
48853;SDS011;34673;52.808;17.856;2022-12-07T03:15:05;31.77;;;13.45;;
48853;SDS011;34673;52.808;17.856;2022-12-07T03:17:46;38.17;;;14.13;;
48853;SDS011;34673;52.808;17.856;2022-12-07T03:20:16;29.55;;;14.27;;
48853;SDS011;34673;52.808;17.856;2022-12-07T03:22:46;38.47;;;14.38;;
48853;SDS011;34673;52.808;17.856;2022-12-07T03:25:15;29.75;;;12.68;;
48853;SDS011;34673;52.808;17.856;2022-12-07T03:30:29;35.50;;;13.25;;
48853;SDS011;34673;52.808;17.856;2022-12-07T03:33:07;30.85;;;12.02;;
48853;SDS011;34673;52.808;17.856;2022-12-07T03:35:45;28.77;;;11.77;;
48853;SDS011;34673;52.808;17.856;2022-12-07T03:38:19;25.02;;;10.30;;
48853;SDS011;34673;52.808;17.856;2022-12-07T03:40:54;19.30;;;9.32;;
48853;SDS011;34673;52.808;17.856;2022-12-07T03:43:28;22.38;;;10.30;;
48853;SDS011;34673;52.808;17.856;2022-12-07T03:48:34;18.30;;;9.38;;
48853;SDS011;34673;52.808;17.856;2022-12-07T03:51:12;19.02;;;8.48;;
48853;SDS011;34673;52.808;17.856;2022-12-07T03:53:48;21.88;;;8.85;;
48853;SDS011;34673;52.808;17.856;2022-12-07T03:56:25;16.73;;;8.50;;
48853;SDS011;34673;52.808;17.856;2022-12-07T03:58:55;17.80;;;8.55;;
48853;SDS011;34673;52.808;17.856;2022-12-07T04:01:22;20.45;;;8.55;;
48853;SDS011;34673;52.808;17.856;2022-12-07T04:03:50;17.23;;;8.32;;
48853;SDS011;34673;52.808;17.856;2022-12-07T04:06:17;21.48;;;9.13;;
48853;SDS011;34673;52.808;17.856;2022-12-07T04:08:44;19.40;;;9.13;;
48853;SDS011;34673;52.808;17.856;2022-12-07T04:11:12;17.52;;;8.75;;
48853;SDS011;34673;52.808;17.856;2022-12-07T04:13:39;19.75;;;8.90;;
48853;SDS011;34673;52.808;17.856;2022-12-07T04:16:24;17.60;;;9.02;;
48853;SDS011;34673;52.808;17.856;2022-12-07T04:18:51;19.90;;;8.93;;
48853;SDS011;34673;52.808;17.856;2022-12-07T04:21:19;16.67;;;8.35;;
48853;SDS011;34673;52.808;17.856;2022-12-07T04:23:46;17.40;;;8.80;;
48853;SDS011;34673;52.808;17.856;2022-12-07T04:26:13;20.70;;;9.07;;
48853;SDS011;34673;52.808;17.856;2022-12-07T04:28:40;21.63;;;9.10;;
48853;SDS011;34673;52.808;17.856;2022-12-07T04:31:07;24.30;;;9.75;;
48853;SDS011;34673;52.808;17.856;2022-12-07T04:33:34;25.33;;;10.15;;
48853;SDS011;34673;52.808;17.856;2022-12-07T04:36:02;24.15;;;9.77;;
48853;SDS011;34673;52.808;17.856;2022-12-07T04:38:29;23.85;;;9.52;;
48853;SDS011;34673;52.808;17.856;2022-12-07T04:40:56;26.42;;;10.30;;
48853;SDS011;34673;52.808;17.856;2022-12-07T04:43:23;21.55;;;9.38;;
48853;SDS011;34673;52.808;17.856;2022-12-07T04:45:50;28.38;;;10.65;;
48853;SDS011;34673;52.808;17.856;2022-12-07T04:48:17;31.45;;;10.68;;
48853;SDS011;34673;52.808;17.856;2022-12-07T04:50:47;26.15;;;9.90;;
48853;SDS011;34673;52.808;17.856;2022-12-07T04:53:16;31.05;;;10.02;;
48853;SDS011;34673;52.808;17.856;2022-12-07T04:55:43;26.63;;;10.50;;
48853;SDS011;34673;52.808;17.856;2022-12-07T04:58:11;28.35;;;10.38;;
48853;SDS011;34673;52.808;17.856;2022-12-07T05:00:39;29.70;;;9.90;;
48853;SDS011;34673;52.808;17.856;2022-12-07T05:03:07;36.47;;;10.38;;
48853;SDS011;34673;52.808;17.856;2022-12-07T05:05:34;31.65;;;10.68;;
48853;SDS011;34673;52.808;17.856;2022-12-07T05:08:01;36.13;;;10.45;;
48853;SDS011;34673;52.808;17.856;2022-12-07T05:10:28;27.95;;;10.40;;
48853;SDS011;34673;52.808;17.856;2022-12-07T05:12:55;25.67;;;9.38;;
48853;SDS011;34673;52.808;17.856;2022-12-07T05:15:22;26.85;;;10.10;;
48853;SDS011;34673;52.808;17.856;2022-12-07T05:17:49;30.58;;;10.43;;
48853;SDS011;34673;52.808;17.856;2022-12-07T05:20:18;26.57;;;9.73;;
48853;SDS011;34673;52.808;17.856;2022-12-07T05:22:45;22.63;;;9.38;;
48853;SDS011;34673;52.808;17.856;2022-12-07T05:25:12;29.38;;;9.95;;
48853;SDS011;34673;52.808;17.856;2022-12-07T05:27:39;25.45;;;10.10;;
48853;SDS011;34673;52.808;17.856;2022-12-07T05:30:07;27.92;;;10.70;;
48853;SDS011;34673;52.808;17.856;2022-12-07T05:32:34;23.60;;;9.55;;
48853;SDS011;34673;52.808;17.856;2022-12-07T05:35:01;25.75;;;9.88;;
48853;SDS011;34673;52.808;17.856;2022-12-07T05:37:28;21.92;;;9.73;;
48853;SDS011;34673;52.808;17.856;2022-12-07T05:39:55;22.52;;;9.23;;
48853;SDS011;34673;52.808;17.856;2022-12-07T05:42:22;20.90;;;8.80;;
48853;SDS011;34673;52.808;17.856;2022-12-07T05:44:49;22.70;;;8.90;;
48853;SDS011;34673;52.808;17.856;2022-12-07T05:47:17;20.42;;;8.90;;
48853;SDS011;34673;52.808;17.856;2022-12-07T05:49:43;20.95;;;8.27;;
48853;SDS011;34673;52.808;17.856;2022-12-07T05:52:11;19.58;;;8.13;;
48853;SDS011;34673;52.808;17.856;2022-12-07T05:54:38;20.98;;;9.43;;
48853;SDS011;34673;52.808;17.856;2022-12-07T05:57:05;22.30;;;9.73;;
48853;SDS011;34673;52.808;17.856;2022-12-07T05:59:32;19.52;;;8.93;;
48853;SDS011;34673;52.808;17.856;2022-12-07T06:02:00;23.08;;;11.23;;
48853;SDS011;34673;52.808;17.856;2022-12-07T06:04:31;21.55;;;9.63;;
48853;SDS011;34673;52.808;17.856;2022-12-07T06:07:00;24.45;;;10.05;;
48853;SDS011;34673;52.808;17.856;2022-12-07T06:09:28;19.20;;;8.95;;
48853;SDS011;34673;52.808;17.856;2022-12-07T06:11:55;22.30;;;10.23;;
48853;SDS011;34673;52.808;17.856;2022-12-07T06:14:42;24.25;;;10.65;;
48853;SDS011;34673;52.808;17.856;2022-12-07T06:17:09;19.23;;;9.90;;
48853;SDS011;34673;52.808;17.856;2022-12-07T06:19:37;19.52;;;9.82;;
48853;SDS011;34673;52.808;17.856;2022-12-07T06:22:04;22.90;;;9.95;;
48853;SDS011;34673;52.808;17.856;2022-12-07T06:24:32;19.13;;;9.88;;
48853;SDS011;34673;52.808;17.856;2022-12-07T06:27:00;20.27;;;10.52;;
48853;SDS011;34673;52.808;17.856;2022-12-07T06:29:27;21.02;;;10.73;;
48853;SDS011;34673;52.808;17.856;2022-12-07T06:31:54;23.35;;;11.95;;
48853;SDS011;34673;52.808;17.856;2022-12-07T06:34:21;24.98;;;12.07;;
48853;SDS011;34673;52.808;17.856;2022-12-07T06:36:50;23.52;;;12.98;;
48853;SDS011;34673;52.808;17.856;2022-12-07T06:39:24;23.60;;;11.85;;
48853;SDS011;34673;52.808;17.856;2022-12-07T06:41:52;24.95;;;11.75;;
48853;SDS011;34673;52.808;17.856;2022-12-07T06:44:21;23.60;;;12.07;;
48853;SDS011;34673;52.808;17.856;2022-12-07T06:46:49;22.00;;;10.90;;
48853;SDS011;34673;52.808;17.856;2022-12-07T06:49:17;22.50;;;11.35;;
48853;SDS011;34673;52.808;17.856;2022-12-07T06:51:44;17.85;;;10.18;;
48853;SDS011;34673;52.808;17.856;2022-12-07T06:54:12;19.60;;;9.88;;
48853;SDS011;34673;52.808;17.856;2022-12-07T06:56:40;19.90;;;9.80;;
48853;SDS011;34673;52.808;17.856;2022-12-07T06:59:07;16.48;;;9.50;;
48853;SDS011;34673;52.808;17.856;2022-12-07T07:01:34;17.98;;;9.35;;
48853;SDS011;34673;52.808;17.856;2022-12-07T07:04:02;18.60;;;9.57;;
48853;SDS011;34673;52.808;17.856;2022-12-07T07:06:29;19.08;;;9.88;;
48853;SDS011;34673;52.808;17.856;2022-12-07T07:08:56;25.60;;;13.57;;
48853;SDS011;34673;52.808;17.856;2022-12-07T07:11:24;20.48;;;10.18;;
48853;SDS011;34673;52.808;17.856;2022-12-07T07:13:51;20.40;;;11.65;;
48853;SDS011;34673;52.808;17.856;2022-12-07T07:16:18;19.80;;;11.02;;
48853;SDS011;34673;52.808;17.856;2022-12-07T07:18:45;18.23;;;10.30;;
48853;SDS011;34673;52.808;17.856;2022-12-07T07:21:12;19.35;;;10.20;;
48853;SDS011;34673;52.808;17.856;2022-12-07T07:23:39;19.73;;;10.45;;
48853;SDS011;34673;52.808;17.856;2022-12-07T07:26:06;20.15;;;11.15;;
48853;SDS011;34673;52.808;17.856;2022-12-07T07:28:33;18.45;;;10.30;;
48853;SDS011;34673;52.808;17.856;2022-12-07T07:31:00;17.65;;;10.23;;
48853;SDS011;34673;52.808;17.856;2022-12-07T07:33:28;18.65;;;10.10;;
48853;SDS011;34673;52.808;17.856;2022-12-07T07:35:55;16.92;;;9.75;;
48853;SDS011;34673;52.808;17.856;2022-12-07T07:38:22;17.45;;;10.32;;
48853;SDS011;34673;52.808;17.856;2022-12-07T07:40:49;17.90;;;10.05;;
48853;SDS011;34673;52.808;17.856;2022-12-07T07:43:16;17.88;;;10.25;;
48853;SDS011;34673;52.808;17.856;2022-12-07T07:45:43;16.50;;;10.20;;
48853;SDS011;34673;52.808;17.856;2022-12-07T07:48:11;19.77;;;10.90;;
48853;SDS011;34673;52.808;17.856;2022-12-07T07:50:38;18.88;;;10.48;;
48853;SDS011;34673;52.808;17.856;2022-12-07T07:53:05;21.05;;;10.45;;
48853;SDS011;34673;52.808;17.856;2022-12-07T07:55:32;18.75;;;10.35;;
48853;SDS011;34673;52.808;17.856;2022-12-07T07:57:59;18.90;;;10.35;;
48853;SDS011;34673;52.808;17.856;2022-12-07T08:00:26;16.70;;;10.00;;
48853;SDS011;34673;52.808;17.856;2022-12-07T08:02:53;17.95;;;10.10;;
48853;SDS011;34673;52.808;17.856;2022-12-07T08:05:21;18.55;;;11.13;;
48853;SDS011;34673;52.808;17.856;2022-12-07T08:07:48;18.35;;;10.13;;
48853;SDS011;34673;52.808;17.856;2022-12-07T08:10:15;22.80;;;12.57;;
48853;SDS011;34673;52.808;17.856;2022-12-07T08:12:42;19.85;;;10.95;;
48853;SDS011;34673;52.808;17.856;2022-12-07T08:15:29;18.10;;;10.30;;
48853;SDS011;34673;52.808;17.856;2022-12-07T08:17:57;18.35;;;10.68;;
48853;SDS011;34673;52.808;17.856;2022-12-07T08:20:24;19.80;;;10.57;;
48853;SDS011;34673;52.808;17.856;2022-12-07T08:22:52;20.58;;;10.57;;
48853;SDS011;34673;52.808;17.856;2022-12-07T08:25:19;19.58;;;10.45;;
48853;SDS011;34673;52.808;17.856;2022-12-07T08:27:47;17.52;;;10.20;;
48853;SDS011;34673;52.808;17.856;2022-12-07T08:30:15;15.90;;;9.30;;
48853;SDS011;34673;52.808;17.856;2022-12-07T08:32:43;17.90;;;10.10;;
48853;SDS011;34673;52.808;17.856;2022-12-07T08:35:12;16.63;;;9.77;;
48853;SDS011;34673;52.808;17.856;2022-12-07T08:37:39;16.40;;;8.77;;
48853;SDS011;34673;52.808;17.856;2022-12-07T08:40:07;18.27;;;9.52;;
48853;SDS011;34673;52.808;17.856;2022-12-07T08:42:36;18.65;;;9.82;;
48853;SDS011;34673;52.808;17.856;2022-12-07T08:45:07;17.42;;;10.00;;
48853;SDS011;34673;52.808;17.856;2022-12-07T08:47:37;15.68;;;9.23;;
48853;SDS011;34673;52.808;17.856;2022-12-07T08:50:08;16.02;;;9.18;;
48853;SDS011;34673;52.808;17.856;2022-12-07T08:52:38;18.92;;;10.73;;
48853;SDS011;34673;52.808;17.856;2022-12-07T08:55:08;17.85;;;9.25;;
48853;SDS011;34673;52.808;17.856;2022-12-07T08:57:37;17.08;;;9.68;;
48853;SDS011;34673;52.808;17.856;2022-12-07T09:00:06;16.50;;;9.50;;
48853;SDS011;34673;52.808;17.856;2022-12-07T09:02:34;18.98;;;10.07;;
48853;SDS011;34673;52.808;17.856;2022-12-07T09:05:01;16.27;;;9.55;;
48853;SDS011;34673;52.808;17.856;2022-12-07T09:07:28;19.75;;;10.55;;
48853;SDS011;34673;52.808;17.856;2022-12-07T09:09:58;19.48;;;10.38;;
48853;SDS011;34673;52.808;17.856;2022-12-07T09:12:25;18.27;;;9.55;;
48853;SDS011;34673;52.808;17.856;2022-12-07T09:14:52;19.55;;;11.18;;
48853;SDS011;34673;52.808;17.856;2022-12-07T09:17:19;16.73;;;9.55;;
48853;SDS011;34673;52.808;17.856;2022-12-07T09:19:46;21.95;;;11.80;;
48853;SDS011;34673;52.808;17.856;2022-12-07T09:22:13;20.30;;;12.05;;
48853;SDS011;34673;52.808;17.856;2022-12-07T09:24:40;22.77;;;12.20;;
48853;SDS011;34673;52.808;17.856;2022-12-07T09:27:07;20.77;;;12.18;;
48853;SDS011;34673;52.808;17.856;2022-12-07T09:29:34;22.25;;;12.13;;
48853;SDS011;34673;52.808;17.856;2022-12-07T09:32:01;20.55;;;11.68;;
48853;SDS011;34673;52.808;17.856;2022-12-07T09:34:36;21.65;;;12.40;;
48853;SDS011;34673;52.808;17.856;2022-12-07T09:37:04;21.33;;;11.93;;
48853;SDS011;34673;52.808;17.856;2022-12-07T09:39:31;20.60;;;10.80;;
48853;SDS011;34673;52.808;17.856;2022-12-07T09:41:58;19.13;;;10.20;;
48853;SDS011;34673;52.808;17.856;2022-12-07T09:44:29;18.80;;;10.30;;
48853;SDS011;34673;52.808;17.856;2022-12-07T09:46:56;19.00;;;11.10;;
48853;SDS011;34673;52.808;17.856;2022-12-07T09:49:24;18.23;;;10.52;;
48853;SDS011;34673;52.808;17.856;2022-12-07T09:54:37;19.00;;;10.98;;
48853;SDS011;34673;52.808;17.856;2022-12-07T09:57:11;20.30;;;11.15;;
48853;SDS011;34673;52.808;17.856;2022-12-07T09:59:39;22.52;;;11.63;;
48853;SDS011;34673;52.808;17.856;2022-12-07T10:02:28;20.52;;;11.25;;
48853;SDS011;34673;52.808;17.856;2022-12-07T10:05:06;20.77;;;11.38;;
48853;SDS011;34673;52.808;17.856;2022-12-07T10:07:37;20.70;;;12.18;;
48853;SDS011;34673;52.808;17.856;2022-12-07T10:10:06;22.52;;;12.38;;
48853;SDS011;34673;52.808;17.856;2022-12-07T10:29:38;21.70;;;11.27;;
48853;SDS011;34673;52.808;17.856;2022-12-07T10:34:41;18.02;;;9.10;;
48853;SDS011;34673;52.808;17.856;2022-12-07T10:37:18;18.40;;;8.73;;
48853;SDS011;34673;52.808;17.856;2022-12-07T10:42:18;14.88;;;8.13;;
48853;SDS011;34673;52.808;17.856;2022-12-07T10:45:09;16.98;;;8.82;;
48853;SDS011;34673;52.808;17.856;2022-12-07T10:50:28;14.73;;;8.43;;
48853;SDS011;34673;52.808;17.856;2022-12-07T11:01:39;14.27;;;8.27;;
48853;SDS011;34673;52.808;17.856;2022-12-07T11:18:26;19.95;;;11.52;;
48853;SDS011;34673;52.808;17.856;2022-12-07T11:21:03;22.48;;;11.88;;
48853;SDS011;34673;52.808;17.856;2022-12-07T11:29:29;21.48;;;11.98;;
48853;SDS011;34673;52.808;17.856;2022-12-07T11:32:43;20.38;;;11.38;;
48853;SDS011;34673;52.808;17.856;2022-12-07T11:35:18;22.77;;;12.80;;
48853;SDS011;34673;52.808;17.856;2022-12-07T11:37:55;24.45;;;12.65;;
48853;SDS011;34673;52.808;17.856;2022-12-07T11:40:27;22.33;;;13.00;;
48853;SDS011;34673;52.808;17.856;2022-12-07T11:45:59;24.33;;;13.68;;
48853;SDS011;34673;52.808;17.856;2022-12-07T11:48:48;23.85;;;13.35;;
48853;SDS011;34673;52.808;17.856;2022-12-07T11:51:25;25.42;;;14.07;;
48853;SDS011;34673;52.808;17.856;2022-12-07T11:54:00;29.17;;;15.27;;
48853;SDS011;34673;52.808;17.856;2022-12-07T11:56:30;26.55;;;14.15;;
48853;SDS011;34673;52.808;17.856;2022-12-07T12:01:48;27.13;;;14.23;;
48853;SDS011;34673;52.808;17.856;2022-12-07T12:04:43;25.95;;;14.98;;
48853;SDS011;34673;52.808;17.856;2022-12-07T12:07:23;25.33;;;14.35;;
48853;SDS011;34673;52.808;17.856;2022-12-07T12:10:20;26.60;;;14.52;;
48853;SDS011;34673;52.808;17.856;2022-12-07T12:13:03;25.92;;;14.77;;
48853;SDS011;34673;52.808;17.856;2022-12-07T12:21:41;27.02;;;14.70;;
48853;SDS011;34673;52.808;17.856;2022-12-07T12:24:11;23.20;;;13.35;;
48853;SDS011;34673;52.808;17.856;2022-12-07T12:26:49;24.38;;;14.25;;
48853;SDS011;34673;52.808;17.856;2022-12-07T12:29:21;29.67;;;15.10;;
48853;SDS011;34673;52.808;17.856;2022-12-07T12:32:17;24.50;;;14.38;;
48853;SDS011;34673;52.808;17.856;2022-12-07T12:42:51;24.02;;;13.05;;
48853;SDS011;34673;52.808;17.856;2022-12-07T12:45:23;26.35;;;14.52;;
48853;SDS011;34673;52.808;17.856;2022-12-07T12:47:58;20.80;;;12.65;;
48853;SDS011;34673;52.808;17.856;2022-12-07T12:54:19;22.35;;;12.90;;
48853;SDS011;34673;52.808;17.856;2022-12-07T12:56:53;30.35;;;14.75;;
48853;SDS011;34673;52.808;17.856;2022-12-07T13:13:28;18.73;;;10.45;;
48853;SDS011;34673;52.808;17.856;2022-12-07T13:18:38;17.95;;;10.70;;
48853;SDS011;34673;52.808;17.856;2022-12-07T13:26:18;17.83;;;10.25;;
48853;SDS011;34673;52.808;17.856;2022-12-07T13:29:17;15.75;;;9.10;;
48853;SDS011;34673;52.808;17.856;2022-12-07T13:31:47;18.45;;;9.52;;
48853;SDS011;34673;52.808;17.856;2022-12-07T13:37:24;14.63;;;9.10;;
48853;SDS011;34673;52.808;17.856;2022-12-07T13:39:54;15.95;;;9.07;;
48853;SDS011;34673;52.808;17.856;2022-12-07T13:42:33;20.38;;;9.45;;
48853;SDS011;34673;52.808;17.856;2022-12-07T13:45:20;17.08;;;9.75;;
48853;SDS011;34673;52.808;17.856;2022-12-07T13:48:44;15.82;;;8.95;;
48853;SDS011;34673;52.808;17.856;2022-12-07T13:51:34;15.43;;;9.23;;
48853;SDS011;34673;52.808;17.856;2022-12-07T13:54:21;16.33;;;9.27;;
48853;SDS011;34673;52.808;17.856;2022-12-07T13:56:49;22.02;;;11.55;;
48853;SDS011;34673;52.808;17.856;2022-12-07T13:59:19;18.50;;;10.40;;
48853;SDS011;34673;52.808;17.856;2022-12-07T14:01:49;21.35;;;12.95;;
48853;SDS011;34673;52.808;17.856;2022-12-07T14:04:34;19.55;;;11.15;;
48853;SDS011;34673;52.808;17.856;2022-12-07T14:07:23;17.58;;;9.98;;
48853;SDS011;34673;52.808;17.856;2022-12-07T14:10:04;19.48;;;10.52;;
48853;SDS011;34673;52.808;17.856;2022-12-07T14:12:34;18.40;;;10.48;;
48853;SDS011;34673;52.808;17.856;2022-12-07T14:15:03;16.33;;;9.65;;
48853;SDS011;34673;52.808;17.856;2022-12-07T14:17:32;19.15;;;10.63;;
48853;SDS011;34673;52.808;17.856;2022-12-07T14:20:00;24.15;;;12.77;;
48853;SDS011;34673;52.808;17.856;2022-12-07T14:22:30;18.85;;;11.00;;
48853;SDS011;34673;52.808;17.856;2022-12-07T14:25:24;16.88;;;10.10;;
48853;SDS011;34673;52.808;17.856;2022-12-07T14:27:58;17.58;;;9.82;;
48853;SDS011;34673;52.808;17.856;2022-12-07T14:30:31;13.45;;;8.75;;
48853;SDS011;34673;52.808;17.856;2022-12-07T14:33:01;17.38;;;9.43;;
48853;SDS011;34673;52.808;17.856;2022-12-07T14:35:30;15.43;;;8.57;;
48853;SDS011;34673;52.808;17.856;2022-12-07T14:37:58;18.20;;;10.15;;
48853;SDS011;34673;52.808;17.856;2022-12-07T14:40:26;21.13;;;10.55;;
48853;SDS011;34673;52.808;17.856;2022-12-07T14:43:05;13.77;;;8.55;;
48853;SDS011;34673;52.808;17.856;2022-12-07T14:45:35;15.23;;;9.05;;
48853;SDS011;34673;52.808;17.856;2022-12-07T14:48:02;15.75;;;9.10;;
48853;SDS011;34673;52.808;17.856;2022-12-07T14:50:51;16.25;;;9.10;;
48853;SDS011;34673;52.808;17.856;2022-12-07T14:53:40;20.03;;;10.87;;
48853;SDS011;34673;52.808;17.856;2022-12-07T14:56:15;17.23;;;9.63;;
48853;SDS011;34673;52.808;17.856;2022-12-07T14:58:42;18.58;;;10.77;;
48853;SDS011;34673;52.808;17.856;2022-12-07T15:01:09;16.42;;;10.00;;
48853;SDS011;34673;52.808;17.856;2022-12-07T15:03:36;18.23;;;10.57;;
48853;SDS011;34673;52.808;17.856;2022-12-07T15:06:05;21.98;;;11.30;;
48853;SDS011;34673;52.808;17.856;2022-12-07T15:08:33;18.48;;;10.43;;
48853;SDS011;34673;52.808;17.856;2022-12-07T15:11:00;21.23;;;11.63;;
48853;SDS011;34673;52.808;17.856;2022-12-07T15:13:27;19.70;;;12.13;;
48853;SDS011;34673;52.808;17.856;2022-12-07T15:16:14;18.92;;;10.38;;
48853;SDS011;34673;52.808;17.856;2022-12-07T15:18:46;20.38;;;12.02;;
48853;SDS011;34673;52.808;17.856;2022-12-07T15:21:33;17.55;;;9.60;;
48853;SDS011;34673;52.808;17.856;2022-12-07T15:24:00;18.58;;;10.23;;
48853;SDS011;34673;52.808;17.856;2022-12-07T15:26:27;18.88;;;10.38;;
48853;SDS011;34673;52.808;17.856;2022-12-07T15:28:54;17.05;;;9.23;;
48853;SDS011;34673;52.808;17.856;2022-12-07T15:31:22;16.65;;;9.77;;
48853;SDS011;34673;52.808;17.856;2022-12-07T15:34:09;13.82;;;8.50;;
48853;SDS011;34673;52.808;17.856;2022-12-07T15:36:36;18.67;;;10.45;;
48853;SDS011;34673;52.808;17.856;2022-12-07T15:39:03;20.00;;;10.20;;
48853;SDS011;34673;52.808;17.856;2022-12-07T15:41:40;16.95;;;9.50;;
48853;SDS011;34673;52.808;17.856;2022-12-07T15:44:09;17.58;;;9.57;;
48853;SDS011;34673;52.808;17.856;2022-12-07T15:46:57;17.95;;;10.13;;
48853;SDS011;34673;52.808;17.856;2022-12-07T15:49:24;15.45;;;9.25;;
48853;SDS011;34673;52.808;17.856;2022-12-07T15:51:51;21.40;;;11.40;;
48853;SDS011;34673;52.808;17.856;2022-12-07T15:54:20;18.58;;;10.48;;
48853;SDS011;34673;52.808;17.856;2022-12-07T15:56:52;15.48;;;9.88;;
48853;SDS011;34673;52.808;17.856;2022-12-07T15:59:19;18.65;;;10.63;;
48853;SDS011;34673;52.808;17.856;2022-12-07T16:01:46;16.30;;;9.65;;
48853;SDS011;34673;52.808;17.856;2022-12-07T16:04:13;19.08;;;11.13;;
48853;SDS011;34673;52.808;17.856;2022-12-07T16:06:40;17.60;;;9.65;;
48853;SDS011;34673;52.808;17.856;2022-12-07T16:09:07;17.42;;;10.63;;
48853;SDS011;34673;52.808;17.856;2022-12-07T16:11:35;18.63;;;10.07;;
48853;SDS011;34673;52.808;17.856;2022-12-07T16:14:02;20.48;;;11.13;;
48853;SDS011;34673;52.808;17.856;2022-12-07T16:16:30;17.38;;;9.95;;
48853;SDS011;34673;52.808;17.856;2022-12-07T16:18:57;17.80;;;10.40;;
48853;SDS011;34673;52.808;17.856;2022-12-07T16:21:25;18.85;;;10.40;;
48853;SDS011;34673;52.808;17.856;2022-12-07T16:23:52;22.67;;;12.43;;
48853;SDS011;34673;52.808;17.856;2022-12-07T16:26:20;17.88;;;10.10;;
48853;SDS011;34673;52.808;17.856;2022-12-07T16:28:49;18.00;;;10.50;;
48853;SDS011;34673;52.808;17.856;2022-12-07T16:31:17;18.58;;;10.77;;
48853;SDS011;34673;52.808;17.856;2022-12-07T16:33:46;17.95;;;10.60;;
48853;SDS011;34673;52.808;17.856;2022-12-07T16:36:15;20.58;;;11.45;;
48853;SDS011;34673;52.808;17.856;2022-12-07T16:39:03;17.13;;;10.15;;
48853;SDS011;34673;52.808;17.856;2022-12-07T16:41:31;15.27;;;9.30;;
48853;SDS011;34673;52.808;17.856;2022-12-07T16:44:03;18.13;;;10.27;;
48853;SDS011;34673;52.808;17.856;2022-12-07T16:46:32;17.17;;;9.82;;
48853;SDS011;34673;52.808;17.856;2022-12-07T16:49:00;19.80;;;10.80;;
48853;SDS011;34673;52.808;17.856;2022-12-07T16:51:28;17.80;;;9.63;;
48853;SDS011;34673;52.808;17.856;2022-12-07T16:53:55;16.23;;;9.30;;
48853;SDS011;34673;52.808;17.856;2022-12-07T16:56:22;14.88;;;8.85;;
48853;SDS011;34673;52.808;17.856;2022-12-07T16:58:49;15.57;;;8.65;;
48853;SDS011;34673;52.808;17.856;2022-12-07T17:01:18;15.90;;;8.88;;